Time,TemperatureF,DewpointF,PressureIn,WindDirection,WindDirectionDegrees,WindSpeedMPH,WindSpeedGustMPH,Humidity,HourlyPrecipIn,Conditions,Clouds,dailyrainin,SoftwareType,DateUTC
2013-04-02 00:12:00,39.2,23.1,29.89,ESE,112,2.2,-999.0,52,-99.99,,,0.00,Acu-Link.com,2013-04-02 04:12:00,
2013-04-02 00:27:00,38.5,23.3,29.90,North,0,3.8,-999.0,54,-99.99,,,0.00,Acu-Link.com,2013-04-02 04:27:00,
2013-04-02 00:57:00,37.0,23.2,29.91,North,0,3.1,-999.0,57,-99.99,,,0.00,Acu-Link.com,2013-04-02 04:57:00,
2013-04-02 01:12:00,36.3,23.0,29.91,WSW,247,3.1,-999.0,58,-99.99,,,0.00,Acu-Link.com,2013-04-02 05:12:00,
2013-04-02 01:28:00,35.6,22.7,29.92,ESE,112,0.0,-999.0,59,-99.99,,,0.00,Acu-Link.com,2013-04-02 05:28:00,
2013-04-02 01:43:00,35.1,23.0,29.92,ESE,112,1.1,-999.0,61,-99.99,,,0.00,Acu-Link.com,2013-04-02 05:43:00,
2013-04-02 01:58:00,34.3,22.7,29.93,SSE,157,0.0,-999.0,62,-99.99,,,0.00,Acu-Link.com,2013-04-02 05:58:00,
2013-04-02 02:13:00,34.0,22.7,29.93,East,90,0.0,-999.0,63,-99.99,,,0.00,Acu-Link.com,2013-04-02 06:13:00,
2013-04-02 02:28:00,32.7,22.3,29.92,West,270,0.0,-999.0,65,-99.99,,,0.00,Acu-Link.com,2013-04-02 06:28:00,
2013-04-02 02:44:00,32.4,22.6,29.92,SSE,157,0.0,-999.0,67,-99.99,,,0.00,Acu-Link.com,2013-04-02 06:44:00,
2013-04-02 02:59:00,31.8,21.8,29.92,SW,225,0.0,-999.0,66,-99.99,,,0.00,Acu-Link.com,2013-04-02 06:59:00,
2013-04-02 03:14:00,31.3,20.9,29.91,WNW,292,0.0,-999.0,65,-99.99,,,0.00,Acu-Link.com,2013-04-02 07:14:00,
2013-04-02 03:29:00,30.2,25.4,29.91,SW,225,0.0,-999.0,82,-99.99,,,0.00,Acu-Link.com,2013-04-02 07:29:00,
2013-04-02 03:44:00,29.3,24.8,29.91,North,0,0.0,-999.0,83,-99.99,,,0.00,Acu-Link.com,2013-04-02 07:44:00,
2013-04-02 04:00:00,29.1,23.7,29.91,West,270,0.0,-999.0,80,-99.99,,,0.00,Acu-Link.com,2013-04-02 08:00:00,
2013-04-02 04:15:00,28.9,25.0,29.92,WNW,292,0.0,-999.0,85,-99.99,,,0.00,Acu-Link.com,2013-04-02 08:15:00,
2013-04-02 04:30:00,31.5,22.5,29.92,ENE,67,0.0,-999.0,69,-99.99,,,0.00,Acu-Link.com,2013-04-02 08:30:00,
2013-04-02 04:46:00,32.9,20.9,29.92,ENE,67,2.7,-999.0,61,-99.99,,,0.00,Acu-Link.com,2013-04-02 08:46:00,
2013-04-02 05:01:00,33.4,20.7,29.93,ENE,67,3.1,-999.0,59,-99.99,,,0.00,Acu-Link.com,2013-04-02 09:01:00,
2013-04-02 05:16:00,33.1,19.9,29.93,SSE,157,0.0,-999.0,58,-99.99,,,0.00,Acu-Link.com,2013-04-02 09:16:00,
2013-04-02 05:31:00,32.9,19.8,29.93,NW,315,0.0,-999.0,58,-99.99,,,0.00,Acu-Link.com,2013-04-02 09:31:00,
2013-04-02 05:46:00,32.7,20.0,29.93,NW,315,0.0,-999.0,59,-99.99,,,0.00,Acu-Link.com,2013-04-02 09:46:00,
2013-04-02 06:01:00,32.0,20.5,29.94,SW,225,5.1,-999.0,62,-99.99,,,0.00,Acu-Link.com,2013-04-02 10:01:00,
2013-04-02 06:17:00,31.8,21.1,29.94,NW,315,0.0,-999.0,64,-99.99,,,0.00,Acu-Link.com,2013-04-02 10:17:00,
2013-04-02 06:32:00,30.9,20.2,29.95,ENE,67,0.0,-999.0,64,-99.99,,,0.00,Acu-Link.com,2013-04-02 10:32:00,
2013-04-02 06:47:00,31.1,21.1,29.95,NE,45,0.0,-999.0,66,-99.99,,,0.00,Acu-Link.com,2013-04-02 10:47:00,
2013-04-02 07:02:00,31.8,21.1,29.96,NNE,22,2.7,-999.0,64,-99.99,,,0.00,Acu-Link.com,2013-04-02 11:02:00,
2013-04-02 07:17:00,32.9,21.3,29.96,NE,45,2.7,-999.0,62,-99.99,,,0.00,Acu-Link.com,2013-04-02 11:17:00,
2013-04-02 07:32:00,35.4,22.5,29.97,SE,135,4.3,-999.0,59,-99.99,,,0.00,Acu-Link.com,2013-04-02 11:32:00,
2013-04-02 07:48:00,37.0,23.2,29.97,East,90,3.8,-999.0,57,-99.99,,,0.00,Acu-Link.com,2013-04-02 11:48:00,
2013-04-02 08:03:00,37.6,23.3,29.99,South,180,3.1,-999.0,56,-99.99,,,0.00,Acu-Link.com,2013-04-02 12:03:00,
2013-04-02 08:18:00,38.3,23.1,29.99,West,270,3.1,-999.0,54,-99.99,,,0.00,Acu-Link.com,2013-04-02 12:18:00,
2013-04-02 08:33:00,40.1,23.4,30.00,South,180,4.3,-999.0,51,-99.99,,,0.00,Acu-Link.com,2013-04-02 12:33:00,
2013-04-02 08:48:00,41.5,23.8,30.00,NNE,22,3.8,-999.0,49,-99.99,,,0.00,Acu-Link.com,2013-04-02 12:48:00,
2013-04-02 09:04:00,43.3,24.5,30.01,NNE,22,9.4,-999.0,47,-99.99,,,0.00,Acu-Link.com,2013-04-02 13:04:00,
2013-04-02 09:19:00,43.3,24.0,30.01,WSW,247,3.1,-999.0,46,-99.99,,,0.00,Acu-Link.com,2013-04-02 13:19:00,
2013-04-02 09:34:00,44.4,23.9,30.01,NNE,22,6.3,-999.0,44,-99.99,,,0.00,Acu-Link.com,2013-04-02 13:34:00,
2013-04-02 09:49:00,45.5,24.3,30.01,NW,315,5.8,-999.0,43,-99.99,,,0.00,Acu-Link.com,2013-04-02 13:49:00,
2013-04-02 10:05:00,45.7,25.0,30.01,SW,225,4.3,-999.0,44,-99.99,,,0.00,Acu-Link.com,2013-04-02 14:05:00,
2013-04-02 10:20:00,47.1,25.2,30.01,NW,315,7.4,-999.0,42,-99.99,,,0.00,Acu-Link.com,2013-04-02 14:20:00,
2013-04-02 10:35:00,47.3,25.4,30.01,NE,45,4.3,-999.0,42,-99.99,,,0.00,Acu-Link.com,2013-04-02 14:35:00,
2013-04-02 10:50:00,46.8,24.3,30.01,SSW,202,2.7,-999.0,41,-99.99,,,0.00,Acu-Link.com,2013-04-02 14:50:00,
2013-04-02 11:05:00,49.5,25.5,30.00,SE,135,5.1,-999.0,39,-99.99,,,0.00,Acu-Link.com,2013-04-02 15:05:00,
2013-04-02 11:21:00,48.4,24.6,30.00,SSW,202,3.1,-999.0,39,-99.99,,,0.00,Acu-Link.com,2013-04-02 15:21:00,
2013-04-02 12:21:00,47.8,24.1,30.00,SW,225,8.3,-999.0,39,-99.99,,,0.00,Acu-Link.com,2013-04-02 16:21:00,
2013-04-02 12:52:00,51.1,24.4,29.99,ESE,112,3.1,-999.0,35,-99.99,,,0.00,Acu-Link.com,2013-04-02 16:52:00,
2013-04-02 13:22:00,52.0,21.5,29.98,SW,225,7.4,-999.0,30,-99.99,,,0.00,Acu-Link.com,2013-04-02 17:22:00,
2013-04-02 13:37:00,51.3,19.3,29.98,SSW,202,5.1,-999.0,28,-99.99,,,0.00,Acu-Link.com,2013-04-02 17:37:00,
2013-04-02 13:53:00,50.0,22.0,29.97,ESE,112,2.7,-999.0,33,-99.99,,,0.00,Acu-Link.com,2013-04-02 17:53:00,
2013-04-02 14:08:00,50.5,20.3,29.97,West,270,4.7,-999.0,30,-99.99,,,0.00,Acu-Link.com,2013-04-02 18:08:00,
2013-04-02 14:23:00,50.2,20.7,29.97,ENE,67,3.8,-999.0,31,-99.99,,,0.00,Acu-Link.com,2013-04-02 18:23:00,
2013-04-02 14:38:00,50.0,22.8,29.97,West,270,3.1,-999.0,34,-99.99,,,0.00,Acu-Link.com,2013-04-02 18:38:00,
2013-04-02 14:53:00,49.3,19.2,29.97,NE,45,3.1,-999.0,30,-99.99,,,0.00,Acu-Link.com,2013-04-02 18:53:00,
2013-04-02 15:09:00,50.2,20.0,29.96,SW,225,10.3,-999.0,30,-99.99,,,0.00,Acu-Link.com,2013-04-02 19:09:00,
2013-04-02 15:24:00,47.5,19.1,29.96,NNE,22,3.8,-999.0,32,-99.99,,,0.00,Acu-Link.com,2013-04-02 19:24:00,
2013-04-02 15:39:00,49.3,19.9,29.95,SSW,202,2.7,-999.0,31,-99.99,,,0.00,Acu-Link.com,2013-04-02 19:39:00,
2013-04-02 15:54:00,48.9,20.4,29.96,SW,225,3.8,-999.0,32,-99.99,,,0.00,Acu-Link.com,2013-04-02 19:54:00,
2013-04-02 16:10:00,48.6,19.3,29.95,SW,225,5.1,-999.0,31,-99.99,,,0.00,Acu-Link.com,2013-04-02 20:10:00,
2013-04-02 16:25:00,48.7,20.2,29.95,SW,225,4.7,-999.0,32,-99.99,,,0.00,Acu-Link.com,2013-04-02 20:25:00,
2013-04-02 16:40:00,47.8,20.1,29.95,WNW,292,8.3,-999.0,33,-99.99,,,0.00,Acu-Link.com,2013-04-02 20:40:00,
2013-04-02 16:55:00,48.2,19.7,29.95,WNW,292,3.8,-999.0,32,-99.99,,,0.00,Acu-Link.com,2013-04-02 20:55:00,
2013-04-02 17:10:00,48.7,17.9,29.96,West,270,4.3,-999.0,29,-99.99,,,0.00,Acu-Link.com,2013-04-02 21:10:00,
2013-04-02 17:26:00,47.5,18.4,29.97,West,270,5.8,-999.0,31,-99.99,,,0.00,Acu-Link.com,2013-04-02 21:26:00,
2013-04-02 17:56:00,46.4,17.4,29.97,ESE,112,4.7,-999.0,31,-99.99,,,0.00,Acu-Link.com,2013-04-02 21:56:00,
2013-04-02 18:11:00,46.6,18.3,29.98,ESE,112,3.8,-999.0,32,-99.99,,,0.00,Acu-Link.com,2013-04-02 22:11:00,
2013-04-02 18:42:00,44.8,16.7,29.99,SW,225,2.2,-999.0,32,-99.99,,,0.00,Acu-Link.com,2013-04-02 22:42:00,
2013-04-02 18:57:00,44.2,17.0,29.99,East,90,9.8,-999.0,33,-99.99,,,0.00,Acu-Link.com,2013-04-02 22:57:00,
2013-04-02 19:12:00,43.2,18.0,29.99,West,270,1.6,-999.0,36,-99.99,,,0.00,Acu-Link.com,2013-04-02 23:12:00,
2013-04-02 19:27:00,42.3,17.9,30.00,North,0,0.0,-999.0,37,-99.99,,,0.00,Acu-Link.com,2013-04-02 23:27:00,
2013-04-02 19:42:00,41.7,18.0,30.00,NNE,22,3.8,-999.0,38,-99.99,,,0.00,Acu-Link.com,2013-04-02 23:42:00,
2013-04-02 19:58:00,41.5,17.8,30.00,ENE,67,7.8,-999.0,38,-99.99,,,0.00,Acu-Link.com,2013-04-02 23:58:00,
2013-04-02 20:13:00,41.2,18.1,30.01,ESE,112,1.1,-999.0,39,-99.99,,,0.00,Acu-Link.com,2013-04-03 00:13:00,
2013-04-02 20:28:00,40.5,18.1,30.02,West,270,2.7,-999.0,40,-99.99,,,0.00,Acu-Link.com,2013-04-03 00:28:00,
2013-04-02 20:43:00,40.6,18.8,30.03,SW,225,3.1,-999.0,41,-99.99,,,0.00,Acu-Link.com,2013-04-03 00:43:00,
2013-04-02 20:59:00,40.5,18.6,30.03,East,90,1.1,-999.0,41,-99.99,,,0.00,Acu-Link.com,2013-04-03 00:59:00,
2013-04-02 21:14:00,40.5,18.6,30.04,NNW,337,5.1,-999.0,41,-99.99,,,0.00,Acu-Link.com,2013-04-03 01:14:00,
2013-04-02 21:29:00,40.1,18.9,30.05,ENE,67,4.3,-999.0,42,-99.99,,,0.00,Acu-Link.com,2013-04-03 01:29:00,
2013-04-02 21:44:00,40.1,18.9,30.05,SSW,202,2.7,-999.0,42,-99.99,,,0.00,Acu-Link.com,2013-04-03 01:44:00,
2013-04-02 21:59:00,39.7,19.1,30.06,East,90,3.8,-999.0,43,-99.99,,,0.00,Acu-Link.com,2013-04-03 01:59:00,
2013-04-02 22:15:00,39.6,19.5,30.06,ENE,67,5.8,-999.0,44,-99.99,,,0.00,Acu-Link.com,2013-04-03 02:15:00,
2013-04-02 22:30:00,39.4,19.8,30.07,West,270,2.7,-999.0,45,-99.99,,,0.00,Acu-Link.com,2013-04-03 02:30:00,
2013-04-02 22:45:00,39.0,20.0,30.07,WNW,292,4.7,-999.0,46,-99.99,,,0.00,Acu-Link.com,2013-04-03 02:45:00,
2013-04-02 23:00:00,38.8,20.4,30.07,North,0,4.3,-999.0,47,-99.99,,,0.00,Acu-Link.com,2013-04-03 03:00:00,
2013-04-02 23:15:00,38.5,20.5,30.07,SE,135,3.8,-999.0,48,-99.99,,,0.00,Acu-Link.com,2013-04-03 03:15:00,
2013-04-02 23:31:00,38.5,20.5,30.07,WSW,247,3.1,-999.0,48,-99.99,,,0.00,Acu-Link.com,2013-04-03 03:31:00,